sensor_id;sensor_type;location;lat;lon;timestamp;P1;durP1;ratioP1;P2;durP2;ratioP2
44147;SDS011;29810;55.848;37.368;2022-10-31T00:02:10;2.65;;;0.57;;
44147;SDS011;29810;55.848;37.368;2022-10-31T00:05:12;1.75;;;0.50;;
44147;SDS011;29810;55.848;37.368;2022-10-31T00:08:13;0.93;;;0.50;;
44147;SDS011;29810;55.848;37.368;2022-10-31T00:11:15;1.42;;;0.70;;
44147;SDS011;29810;55.848;37.368;2022-10-31T00:14:17;1.90;;;0.70;;
44147;SDS011;29810;55.848;37.368;2022-10-31T00:17:18;2.72;;;0.43;;
44147;SDS011;29810;55.848;37.368;2022-10-31T00:20:20;1.48;;;0.50;;
44147;SDS011;29810;55.848;37.368;2022-10-31T00:23:21;1.75;;;0.40;;
44147;SDS011;29810;55.848;37.368;2022-10-31T00:26:23;1.27;;;0.60;;
44147;SDS011;29810;55.848;37.368;2022-10-31T00:29:24;1.62;;;0.60;;
44147;SDS011;29810;55.848;37.368;2022-10-31T00:32:28;0.98;;;0.40;;
44147;SDS011;29810;55.848;37.368;2022-10-31T00:35:31;0.90;;;0.40;;
44147;SDS011;29810;55.848;37.368;2022-10-31T00:38:33;1.60;;;0.43;;
44147;SDS011;29810;55.848;37.368;2022-10-31T00:41:37;0.90;;;0.40;;
44147;SDS011;29810;55.848;37.368;2022-10-31T00:44:42;3.15;;;0.40;;
44147;SDS011;29810;55.848;37.368;2022-10-31T00:47:44;2.12;;;0.50;;
44147;SDS011;29810;55.848;37.368;2022-10-31T00:50:45;1.27;;;0.50;;
44147;SDS011;29810;55.848;37.368;2022-10-31T00:53:50;1.65;;;0.55;;
44147;SDS011;29810;55.848;37.368;2022-10-31T00:56:52;2.10;;;0.52;;
44147;SDS011;29810;55.848;37.368;2022-10-31T00:59:54;1.33;;;0.47;;
44147;SDS011;29810;55.848;37.368;2022-10-31T01:02:55;1.33;;;0.50;;
44147;SDS011;29810;55.848;37.368;2022-10-31T01:05:57;3.67;;;0.50;;
44147;SDS011;29810;55.848;37.368;2022-10-31T01:09:03;2.85;;;0.50;;
44147;SDS011;29810;55.848;37.368;2022-10-31T01:12:04;1.58;;;0.60;;
44147;SDS011;29810;55.848;37.368;2022-10-31T01:15:06;1.70;;;0.60;;
44147;SDS011;29810;55.848;37.368;2022-10-31T01:18:09;1.10;;;0.50;;
44147;SDS011;29810;55.848;37.368;2022-10-31T01:21:15;2.45;;;0.50;;
44147;SDS011;29810;55.848;37.368;2022-10-31T01:24:19;3.83;;;0.52;;
44147;SDS011;29810;55.848;37.368;2022-10-31T01:27:20;2.60;;;0.50;;
44147;SDS011;29810;55.848;37.368;2022-10-31T01:30:22;1.77;;;0.43;;
44147;SDS011;29810;55.848;37.368;2022-10-31T01:33:23;0.80;;;0.40;;
44147;SDS011;29810;55.848;37.368;2022-10-31T01:36:26;1.70;;;0.40;;
44147;SDS011;29810;55.848;37.368;2022-10-31T01:39:29;3.95;;;0.65;;
44147;SDS011;29810;55.848;37.368;2022-10-31T01:42:31;2.15;;;0.50;;
44147;SDS011;29810;55.848;37.368;2022-10-31T01:45:32;2.25;;;0.70;;
44147;SDS011;29810;55.848;37.368;2022-10-31T01:48:34;2.12;;;0.60;;
44147;SDS011;29810;55.848;37.368;2022-10-31T01:51:38;2.47;;;0.68;;
44147;SDS011;29810;55.848;37.368;2022-10-31T01:55:00;2.17;;;0.70;;
44147;SDS011;29810;55.848;37.368;2022-10-31T01:58:15;1.98;;;0.50;;
44147;SDS011;29810;55.848;37.368;2022-10-31T02:01:26;2.67;;;0.60;;
44147;SDS011;29810;55.848;37.368;2022-10-31T02:04:29;2.03;;;0.68;;
44147;SDS011;29810;55.848;37.368;2022-10-31T02:07:34;1.70;;;0.60;;
44147;SDS011;29810;55.848;37.368;2022-10-31T02:10:40;1.20;;;0.62;;
44147;SDS011;29810;55.848;37.368;2022-10-31T02:13:44;3.00;;;0.60;;
44147;SDS011;29810;55.848;37.368;2022-10-31T02:17:05;1.40;;;0.47;;
44147;SDS011;29810;55.848;37.368;2022-10-31T02:20:18;3.08;;;0.73;;
44147;SDS011;29810;55.848;37.368;2022-10-31T02:33:32;1.48;;;0.50;;
44147;SDS011;29810;55.848;37.368;2022-10-31T02:37:13;1.55;;;0.50;;
44147;SDS011;29810;55.848;37.368;2022-10-31T02:47:14;2.22;;;0.70;;
44147;SDS011;29810;55.848;37.368;2022-10-31T02:50:20;1.83;;;0.73;;
44147;SDS011;29810;55.848;37.368;2022-10-31T02:53:26;2.53;;;1.00;;
44147;SDS011;29810;55.848;37.368;2022-10-31T02:56:33;3.00;;;0.70;;
44147;SDS011;29810;55.848;37.368;2022-10-31T02:59:35;2.15;;;0.82;;
44147;SDS011;29810;55.848;37.368;2022-10-31T03:02:46;1.90;;;0.90;;
44147;SDS011;29810;55.848;37.368;2022-10-31T03:09:11;1.50;;;0.70;;
44147;SDS011;29810;55.848;37.368;2022-10-31T03:12:30;3.67;;;0.98;;
44147;SDS011;29810;55.848;37.368;2022-10-31T03:19:19;1.58;;;0.82;;
44147;SDS011;29810;55.848;37.368;2022-10-31T03:22:42;2.50;;;0.80;;
44147;SDS011;29810;55.848;37.368;2022-10-31T03:25:45;2.50;;;0.85;;
44147;SDS011;29810;55.848;37.368;2022-10-31T03:29:07;1.95;;;0.82;;
44147;SDS011;29810;55.848;37.368;2022-10-31T03:32:13;2.17;;;1.00;;
44147;SDS011;29810;55.848;37.368;2022-10-31T03:35:20;2.12;;;1.10;;
44147;SDS011;29810;55.848;37.368;2022-10-31T03:38:24;2.00;;;0.90;;
44147;SDS011;29810;55.848;37.368;2022-10-31T03:41:27;4.05;;;0.88;;
44147;SDS011;29810;55.848;37.368;2022-10-31T03:44:33;2.00;;;0.90;;
44147;SDS011;29810;55.848;37.368;2022-10-31T03:47:36;1.73;;;0.70;;
44147;SDS011;29810;55.848;37.368;2022-10-31T03:50:49;1.65;;;0.90;;
44147;SDS011;29810;55.848;37.368;2022-10-31T03:54:06;1.87;;;0.70;;
44147;SDS011;29810;55.848;37.368;2022-10-31T04:00:46;1.40;;;0.80;;
44147;SDS011;29810;55.848;37.368;2022-10-31T04:03:52;2.47;;;1.00;;
44147;SDS011;29810;55.848;37.368;2022-10-31T04:06:55;2.03;;;0.98;;
44147;SDS011;29810;55.848;37.368;2022-10-31T04:10:00;16.98;;;1.40;;
44147;SDS011;29810;55.848;37.368;2022-10-31T04:13:09;3.92;;;0.73;;
44147;SDS011;29810;55.848;37.368;2022-10-31T04:16:17;3.50;;;0.80;;
44147;SDS011;29810;55.848;37.368;2022-10-31T04:19:19;1.75;;;0.65;;
44147;SDS011;29810;55.848;37.368;2022-10-31T04:22:21;2.70;;;0.80;;
44147;SDS011;29810;55.848;37.368;2022-10-31T04:25:22;2.60;;;0.90;;
44147;SDS011;29810;55.848;37.368;2022-10-31T04:28:25;2.95;;;0.98;;
44147;SDS011;29810;55.848;37.368;2022-10-31T04:31:27;3.80;;;1.00;;
44147;SDS011;29810;55.848;37.368;2022-10-31T04:34:28;2.17;;;0.80;;
44147;SDS011;29810;55.848;37.368;2022-10-31T04:37:39;2.08;;;0.70;;
44147;SDS011;29810;55.848;37.368;2022-10-31T04:40:41;2.87;;;0.80;;
44147;SDS011;29810;55.848;37.368;2022-10-31T04:43:43;2.12;;;0.75;;
44147;SDS011;29810;55.848;37.368;2022-10-31T04:46:45;2.28;;;0.70;;
44147;SDS011;29810;55.848;37.368;2022-10-31T04:49:47;1.37;;;0.68;;
44147;SDS011;29810;55.848;37.368;2022-10-31T04:52:49;2.70;;;0.70;;
44147;SDS011;29810;55.848;37.368;2022-10-31T04:55:51;4.70;;;1.12;;
44147;SDS011;29810;55.848;37.368;2022-10-31T04:58:53;1.55;;;0.80;;
44147;SDS011;29810;55.848;37.368;2022-10-31T05:01:56;1.58;;;0.60;;
44147;SDS011;29810;55.848;37.368;2022-10-31T05:04:58;1.67;;;0.82;;
44147;SDS011;29810;55.848;37.368;2022-10-31T05:07:59;1.58;;;0.80;;
44147;SDS011;29810;55.848;37.368;2022-10-31T05:11:03;2.40;;;0.90;;
44147;SDS011;29810;55.848;37.368;2022-10-31T05:14:05;3.42;;;0.73;;
44147;SDS011;29810;55.848;37.368;2022-10-31T05:17:10;2.20;;;0.70;;
44147;SDS011;29810;55.848;37.368;2022-10-31T05:20:14;2.65;;;0.98;;
44147;SDS011;29810;55.848;37.368;2022-10-31T05:23:18;2.78;;;1.10;;
44147;SDS011;29810;55.848;37.368;2022-10-31T05:26:21;1.77;;;0.70;;
44147;SDS011;29810;55.848;37.368;2022-10-31T05:29:22;2.62;;;0.90;;
44147;SDS011;29810;55.848;37.368;2022-10-31T05:32:24;1.23;;;0.52;;
44147;SDS011;29810;55.848;37.368;2022-10-31T05:35:29;1.40;;;0.70;;
44147;SDS011;29810;55.848;37.368;2022-10-31T05:38:34;2.83;;;1.00;;
44147;SDS011;29810;55.848;37.368;2022-10-31T05:41:36;1.25;;;0.60;;
44147;SDS011;29810;55.848;37.368;2022-10-31T05:44:38;4.57;;;1.17;;
44147;SDS011;29810;55.848;37.368;2022-10-31T05:47:42;1.90;;;0.85;;
44147;SDS011;29810;55.848;37.368;2022-10-31T05:50:49;2.35;;;0.77;;
44147;SDS011;29810;55.848;37.368;2022-10-31T05:53:51;1.65;;;0.80;;
44147;SDS011;29810;55.848;37.368;2022-10-31T05:56:53;2.33;;;1.10;;
44147;SDS011;29810;55.848;37.368;2022-10-31T05:59:54;2.22;;;1.02;;
44147;SDS011;29810;55.848;37.368;2022-10-31T06:03:00;2.15;;;1.10;;
44147;SDS011;29810;55.848;37.368;2022-10-31T06:06:03;2.12;;;1.15;;
44147;SDS011;29810;55.848;37.368;2022-10-31T06:09:05;2.40;;;1.00;;
44147;SDS011;29810;55.848;37.368;2022-10-31T06:12:08;3.95;;;1.55;;
44147;SDS011;29810;55.848;37.368;2022-10-31T06:15:18;2.35;;;1.30;;
44147;SDS011;29810;55.848;37.368;2022-10-31T06:18:21;3.40;;;2.03;;
44147;SDS011;29810;55.848;37.368;2022-10-31T06:21:23;11.50;;;2.40;;
44147;SDS011;29810;55.848;37.368;2022-10-31T06:24:25;3.75;;;2.00;;
44147;SDS011;29810;55.848;37.368;2022-10-31T06:27:29;4.62;;;2.08;;
44147;SDS011;29810;55.848;37.368;2022-10-31T06:30:31;4.05;;;1.50;;
44147;SDS011;29810;55.848;37.368;2022-10-31T06:33:34;3.20;;;1.55;;
44147;SDS011;29810;55.848;37.368;2022-10-31T06:36:36;2.28;;;1.20;;
44147;SDS011;29810;55.848;37.368;2022-10-31T06:39:37;5.12;;;1.50;;
44147;SDS011;29810;55.848;37.368;2022-10-31T06:42:42;2.72;;;1.25;;
44147;SDS011;29810;55.848;37.368;2022-10-31T06:45:43;2.78;;;1.60;;
44147;SDS011;29810;55.848;37.368;2022-10-31T06:48:47;3.87;;;1.08;;
44147;SDS011;29810;55.848;37.368;2022-10-31T06:51:49;1.52;;;0.90;;
44147;SDS011;29810;55.848;37.368;2022-10-31T06:54:52;3.00;;;1.30;;
44147;SDS011;29810;55.848;37.368;2022-10-31T06:57:55;2.40;;;1.42;;
44147;SDS011;29810;55.848;37.368;2022-10-31T07:00:59;2.85;;;1.35;;
44147;SDS011;29810;55.848;37.368;2022-10-31T07:04:01;3.05;;;1.48;;
44147;SDS011;29810;55.848;37.368;2022-10-31T07:07:06;2.62;;;1.42;;
44147;SDS011;29810;55.848;37.368;2022-10-31T07:10:08;2.62;;;1.17;;
44147;SDS011;29810;55.848;37.368;2022-10-31T07:13:12;2.60;;;1.35;;
44147;SDS011;29810;55.848;37.368;2022-10-31T07:16:16;3.10;;;1.33;;
44147;SDS011;29810;55.848;37.368;2022-10-31T07:19:18;2.55;;;1.30;;
44147;SDS011;29810;55.848;37.368;2022-10-31T07:22:19;2.50;;;1.00;;
44147;SDS011;29810;55.848;37.368;2022-10-31T07:25:21;2.03;;;0.93;;
44147;SDS011;29810;55.848;37.368;2022-10-31T07:28:34;1.70;;;0.90;;
44147;SDS011;29810;55.848;37.368;2022-10-31T07:31:36;1.58;;;1.02;;
44147;SDS011;29810;55.848;37.368;2022-10-31T07:34:38;1.37;;;0.80;;
44147;SDS011;29810;55.848;37.368;2022-10-31T07:37:43;3.30;;;1.00;;
44147;SDS011;29810;55.848;37.368;2022-10-31T07:40:51;1.90;;;1.00;;
44147;SDS011;29810;55.848;37.368;2022-10-31T07:43:54;5.70;;;1.10;;
44147;SDS011;29810;55.848;37.368;2022-10-31T07:46:56;0.82;;;0.60;;
44147;SDS011;29810;55.848;37.368;2022-10-31T07:50:00;1.33;;;0.90;;
44147;SDS011;29810;55.848;37.368;2022-10-31T07:53:08;1.87;;;0.60;;
44147;SDS011;29810;55.848;37.368;2022-10-31T07:56:12;1.10;;;0.70;;
44147;SDS011;29810;55.848;37.368;2022-10-31T07:59:15;1.70;;;0.73;;
44147;SDS011;29810;55.848;37.368;2022-10-31T08:02:17;1.33;;;0.80;;
44147;SDS011;29810;55.848;37.368;2022-10-31T08:05:20;0.82;;;0.60;;
44147;SDS011;29810;55.848;37.368;2022-10-31T08:08:36;1.00;;;0.70;;
44147;SDS011;29810;55.848;37.368;2022-10-31T08:11:38;2.15;;;1.10;;
44147;SDS011;29810;55.848;37.368;2022-10-31T08:14:41;1.80;;;0.90;;
44147;SDS011;29810;55.848;37.368;2022-10-31T08:17:42;2.10;;;1.10;;
44147;SDS011;29810;55.848;37.368;2022-10-31T08:20:44;4.37;;;1.58;;
44147;SDS011;29810;55.848;37.368;2022-10-31T08:23:46;2.28;;;1.30;;
44147;SDS011;29810;55.848;37.368;2022-10-31T08:26:48;3.08;;;1.60;;
44147;SDS011;29810;55.848;37.368;2022-10-31T08:29:52;2.65;;;1.40;;
44147;SDS011;29810;55.848;37.368;2022-10-31T08:32:57;2.67;;;1.15;;
44147;SDS011;29810;55.848;37.368;2022-10-31T08:36:09;4.30;;;2.17;;
44147;SDS011;29810;55.848;37.368;2022-10-31T08:39:12;2.50;;;1.58;;
44147;SDS011;29810;55.848;37.368;2022-10-31T08:42:13;3.95;;;1.42;;
44147;SDS011;29810;55.848;37.368;2022-10-31T08:45:15;3.30;;;1.67;;
44147;SDS011;29810;55.848;37.368;2022-10-31T08:48:17;4.37;;;2.35;;
44147;SDS011;29810;55.848;37.368;2022-10-31T08:51:18;3.15;;;1.98;;
44147;SDS011;29810;55.848;37.368;2022-10-31T08:54:24;3.83;;;2.37;;
44147;SDS011;29810;55.848;37.368;2022-10-31T08:57:33;2.75;;;1.67;;
44147;SDS011;29810;55.848;37.368;2022-10-31T09:00:35;3.53;;;1.48;;
44147;SDS011;29810;55.848;37.368;2022-10-31T09:03:37;3.92;;;1.67;;
44147;SDS011;29810;55.848;37.368;2022-10-31T09:06:39;2.35;;;1.35;;
44147;SDS011;29810;55.848;37.368;2022-10-31T09:09:40;2.90;;;1.48;;
44147;SDS011;29810;55.848;37.368;2022-10-31T09:12:42;1.87;;;1.10;;
44147;SDS011;29810;55.848;37.368;2022-10-31T09:15:50;2.47;;;1.40;;
44147;SDS011;29810;55.848;37.368;2022-10-31T09:18:52;2.50;;;1.40;;
44147;SDS011;29810;55.848;37.368;2022-10-31T09:21:54;2.20;;;1.10;;
44147;SDS011;29810;55.848;37.368;2022-10-31T09:24:58;1.52;;;0.80;;
44147;SDS011;29810;55.848;37.368;2022-10-31T09:28:00;2.08;;;0.70;;
44147;SDS011;29810;55.848;37.368;2022-10-31T09:31:04;1.45;;;0.80;;
44147;SDS011;29810;55.848;37.368;2022-10-31T09:34:08;1.42;;;0.80;;
44147;SDS011;29810;55.848;37.368;2022-10-31T09:40:16;2.37;;;0.90;;
44147;SDS011;29810;55.848;37.368;2022-10-31T09:56:35;1.90;;;0.90;;
44147;SDS011;29810;55.848;37.368;2022-10-31T09:59:39;1.20;;;0.75;;
44147;SDS011;29810;55.848;37.368;2022-10-31T10:02:54;2.85;;;0.88;;
44147;SDS011;29810;55.848;37.368;2022-10-31T10:06:14;2.17;;;1.40;;
44147;SDS011;29810;55.848;37.368;2022-10-31T10:09:27;2.08;;;1.10;;
44147;SDS011;29810;55.848;37.368;2022-10-31T10:13:09;1.40;;;0.90;;
44147;SDS011;29810;55.848;37.368;2022-10-31T10:19:40;1.98;;;0.88;;
44147;SDS011;29810;55.848;37.368;2022-10-31T10:26:21;1.98;;;1.00;;
44147;SDS011;29810;55.848;37.368;2022-10-31T10:29:39;1.58;;;0.85;;
44147;SDS011;29810;55.848;37.368;2022-10-31T10:32:53;1.75;;;1.08;;
44147;SDS011;29810;55.848;37.368;2022-10-31T10:35:59;2.12;;;0.73;;
44147;SDS011;29810;55.848;37.368;2022-10-31T10:39:04;1.73;;;0.80;;
44147;SDS011;29810;55.848;37.368;2022-10-31T10:42:13;2.47;;;1.00;;
44147;SDS011;29810;55.848;37.368;2022-10-31T10:45:42;1.02;;;0.68;;
44147;SDS011;29810;55.848;37.368;2022-10-31T10:55:36;1.37;;;1.00;;
44147;SDS011;29810;55.848;37.368;2022-10-31T10:58:49;2.87;;;0.90;;
44147;SDS011;29810;55.848;37.368;2022-10-31T11:01:51;1.90;;;0.95;;
44147;SDS011;29810;55.848;37.368;2022-10-31T11:04:57;2.08;;;1.00;;
44147;SDS011;29810;55.848;37.368;2022-10-31T11:08:01;1.70;;;1.05;;
44147;SDS011;29810;55.848;37.368;2022-10-31T11:14:54;2.37;;;1.00;;
44147;SDS011;29810;55.848;37.368;2022-10-31T11:18:04;1.48;;;0.70;;
44147;SDS011;29810;55.848;37.368;2022-10-31T11:21:25;2.20;;;0.90;;
44147;SDS011;29810;55.848;37.368;2022-10-31T11:24:30;1.00;;;0.60;;
44147;SDS011;29810;55.848;37.368;2022-10-31T11:27:39;1.98;;;1.00;;
44147;SDS011;29810;55.848;37.368;2022-10-31T11:30:48;1.80;;;1.00;;
44147;SDS011;29810;55.848;37.368;2022-10-31T11:33:56;1.35;;;0.80;;
44147;SDS011;29810;55.848;37.368;2022-10-31T11:37:23;1.33;;;0.98;;
44147;SDS011;29810;55.848;37.368;2022-10-31T11:40:25;1.48;;;0.98;;
44147;SDS011;29810;55.848;37.368;2022-10-31T11:43:28;1.33;;;0.95;;
44147;SDS011;29810;55.848;37.368;2022-10-31T11:46:33;2.03;;;0.90;;
44147;SDS011;29810;55.848;37.368;2022-10-31T11:49:43;1.30;;;0.88;;
44147;SDS011;29810;55.848;37.368;2022-10-31T11:52:50;1.55;;;0.90;;
44147;SDS011;29810;55.848;37.368;2022-10-31T11:56:04;1.40;;;0.88;;
44147;SDS011;29810;55.848;37.368;2022-10-31T11:59:26;1.30;;;0.90;;
44147;SDS011;29810;55.848;37.368;2022-10-31T12:02:30;4.45;;;1.00;;
44147;SDS011;29810;55.848;37.368;2022-10-31T12:05:32;1.25;;;0.82;;
44147;SDS011;29810;55.848;37.368;2022-10-31T12:08:34;1.62;;;0.93;;
44147;SDS011;29810;55.848;37.368;2022-10-31T12:11:42;2.15;;;1.08;;
44147;SDS011;29810;55.848;37.368;2022-10-31T12:31:15;1.70;;;1.00;;
44147;SDS011;29810;55.848;37.368;2022-10-31T12:34:32;1.77;;;1.00;;
44147;SDS011;29810;55.848;37.368;2022-10-31T12:37:50;1.80;;;1.00;;
44147;SDS011;29810;55.848;37.368;2022-10-31T12:41:20;3.05;;;0.98;;
44147;SDS011;29810;55.848;37.368;2022-10-31T12:48:16;2.78;;;1.20;;
44147;SDS011;29810;55.848;37.368;2022-10-31T12:59:38;2.15;;;1.00;;
44147;SDS011;29810;55.848;37.368;2022-10-31T13:06:06;2.95;;;1.40;;
44147;SDS011;29810;55.848;37.368;2022-10-31T13:09:15;2.12;;;1.40;;
44147;SDS011;29810;55.848;37.368;2022-10-31T13:12:23;2.05;;;1.17;;
44147;SDS011;29810;55.848;37.368;2022-10-31T13:15:30;2.10;;;1.20;;
44147;SDS011;29810;55.848;37.368;2022-10-31T13:25:16;5.85;;;1.98;;
44147;SDS011;29810;55.848;37.368;2022-10-31T13:28:43;6.18;;;2.00;;
44147;SDS011;29810;55.848;37.368;2022-10-31T13:31:48;2.20;;;1.27;;
44147;SDS011;29810;55.848;37.368;2022-10-31T13:34:51;2.15;;;1.10;;
44147;SDS011;29810;55.848;37.368;2022-10-31T13:38:45;2.78;;;1.90;;
44147;SDS011;29810;55.848;37.368;2022-10-31T13:44:51;2.72;;;1.67;;
44147;SDS011;29810;55.848;37.368;2022-10-31T13:51:31;2.92;;;1.65;;
44147;SDS011;29810;55.848;37.368;2022-10-31T13:57:38;2.97;;;1.70;;
44147;SDS011;29810;55.848;37.368;2022-10-31T14:00:43;2.22;;;1.50;;
44147;SDS011;29810;55.848;37.368;2022-10-31T14:03:46;4.57;;;1.65;;
44147;SDS011;29810;55.848;37.368;2022-10-31T14:06:57;2.30;;;1.20;;
44147;SDS011;29810;55.848;37.368;2022-10-31T14:10:31;2.65;;;1.45;;
44147;SDS011;29810;55.848;37.368;2022-10-31T14:16:36;2.40;;;1.52;;
44147;SDS011;29810;55.848;37.368;2022-10-31T14:19:55;4.07;;;1.50;;
44147;SDS011;29810;55.848;37.368;2022-10-31T14:26:35;2.33;;;1.55;;
44147;SDS011;29810;55.848;37.368;2022-10-31T14:29:37;2.72;;;1.45;;
44147;SDS011;29810;55.848;37.368;2022-10-31T14:32:39;2.47;;;1.55;;
44147;SDS011;29810;55.848;37.368;2022-10-31T14:39:13;2.80;;;1.37;;
44147;SDS011;29810;55.848;37.368;2022-10-31T14:42:41;3.47;;;1.40;;
44147;SDS011;29810;55.848;37.368;2022-10-31T14:52:46;3.00;;;1.58;;
44147;SDS011;29810;55.848;37.368;2022-10-31T14:55:52;3.42;;;1.48;;
44147;SDS011;29810;55.848;37.368;2022-10-31T14:58:56;3.78;;;1.60;;
44147;SDS011;29810;55.848;37.368;2022-10-31T15:02:09;2.25;;;1.52;;
44147;SDS011;29810;55.848;37.368;2022-10-31T15:05:25;2.08;;;1.45;;
44147;SDS011;29810;55.848;37.368;2022-10-31T15:08:38;2.78;;;1.80;;
44147;SDS011;29810;55.848;37.368;2022-10-31T15:11:41;3.30;;;1.50;;
44147;SDS011;29810;55.848;37.368;2022-10-31T15:14:43;2.75;;;1.83;;
44147;SDS011;29810;55.848;37.368;2022-10-31T15:17:45;3.03;;;1.65;;
44147;SDS011;29810;55.848;37.368;2022-10-31T15:20:51;3.45;;;1.55;;
44147;SDS011;29810;55.848;37.368;2022-10-31T15:23:56;4.00;;;1.73;;
44147;SDS011;29810;55.848;37.368;2022-10-31T15:27:00;3.17;;;1.80;;
44147;SDS011;29810;55.848;37.368;2022-10-31T15:30:01;3.08;;;1.92;;
44147;SDS011;29810;55.848;37.368;2022-10-31T15:33:26;3.75;;;1.75;;
44147;SDS011;29810;55.848;37.368;2022-10-31T15:36:40;3.65;;;1.90;;
44147;SDS011;29810;55.848;37.368;2022-10-31T15:39:49;2.50;;;1.73;;
44147;SDS011;29810;55.848;37.368;2022-10-31T15:42:51;2.53;;;1.33;;
44147;SDS011;29810;55.848;37.368;2022-10-31T15:45:58;5.00;;;1.70;;
44147;SDS011;29810;55.848;37.368;2022-10-31T15:49:01;1.65;;;1.00;;
44147;SDS011;29810;55.848;37.368;2022-10-31T15:52:04;2.92;;;1.58;;
44147;SDS011;29810;55.848;37.368;2022-10-31T15:58:20;2.58;;;1.30;;
44147;SDS011;29810;55.848;37.368;2022-10-31T16:04:33;3.10;;;1.60;;
44147;SDS011;29810;55.848;37.368;2022-10-31T16:07:37;2.12;;;1.27;;
44147;SDS011;29810;55.848;37.368;2022-10-31T16:10:51;3.95;;;1.77;;
44147;SDS011;29810;55.848;37.368;2022-10-31T16:13:54;2.05;;;1.40;;
44147;SDS011;29810;55.848;37.368;2022-10-31T16:16:58;2.57;;;1.50;;
44147;SDS011;29810;55.848;37.368;2022-10-31T16:20:04;3.83;;;1.62;;
44147;SDS011;29810;55.848;37.368;2022-10-31T16:23:11;4.15;;;1.77;;
44147;SDS011;29810;55.848;37.368;2022-10-31T16:26:17;2.47;;;1.40;;
44147;SDS011;29810;55.848;37.368;2022-10-31T16:29:27;3.00;;;1.50;;
44147;SDS011;29810;55.848;37.368;2022-10-31T16:32:36;2.50;;;1.30;;
44147;SDS011;29810;55.848;37.368;2022-10-31T16:35:55;2.05;;;1.10;;
44147;SDS011;29810;55.848;37.368;2022-10-31T16:38:58;2.90;;;1.10;;
44147;SDS011;29810;55.848;37.368;2022-10-31T16:42:00;1.65;;;1.12;;
44147;SDS011;29810;55.848;37.368;2022-10-31T16:45:01;2.40;;;1.50;;
44147;SDS011;29810;55.848;37.368;2022-10-31T16:48:05;3.20;;;1.58;;
44147;SDS011;29810;55.848;37.368;2022-10-31T16:51:12;3.25;;;1.90;;
44147;SDS011;29810;55.848;37.368;2022-10-31T16:54:14;2.42;;;1.30;;
44147;SDS011;29810;55.848;37.368;2022-10-31T16:57:16;2.20;;;1.42;;
44147;SDS011;29810;55.848;37.368;2022-10-31T17:00:21;3.00;;;1.55;;
44147;SDS011;29810;55.848;37.368;2022-10-31T17:03:24;2.17;;;1.42;;
44147;SDS011;29810;55.848;37.368;2022-10-31T17:06:26;2.85;;;1.33;;
44147;SDS011;29810;55.848;37.368;2022-10-31T17:09:28;4.22;;;1.33;;
44147;SDS011;29810;55.848;37.368;2022-10-31T17:12:30;1.87;;;1.15;;
44147;SDS011;29810;55.848;37.368;2022-10-31T17:15:41;2.80;;;1.40;;
44147;SDS011;29810;55.848;37.368;2022-10-31T17:18:46;3.10;;;1.62;;
44147;SDS011;29810;55.848;37.368;2022-10-31T17:21:48;3.03;;;1.40;;
44147;SDS011;29810;55.848;37.368;2022-10-31T17:24:50;2.58;;;1.40;;
44147;SDS011;29810;55.848;37.368;2022-10-31T17:27:51;3.10;;;1.42;;
44147;SDS011;29810;55.848;37.368;2022-10-31T17:30:56;5.28;;;1.42;;
44147;SDS011;29810;55.848;37.368;2022-10-31T17:33:59;2.47;;;1.40;;
44147;SDS011;29810;55.848;37.368;2022-10-31T17:37:08;3.15;;;1.60;;
44147;SDS011;29810;55.848;37.368;2022-10-31T17:40:18;2.90;;;1.33;;
44147;SDS011;29810;55.848;37.368;2022-10-31T17:43:21;3.80;;;1.70;;
44147;SDS011;29810;55.848;37.368;2022-10-31T17:46:27;2.85;;;1.60;;
44147;SDS011;29810;55.848;37.368;2022-10-31T17:49:29;2.35;;;1.30;;
44147;SDS011;29810;55.848;37.368;2022-10-31T17:52:30;3.15;;;1.30;;
44147;SDS011;29810;55.848;37.368;2022-10-31T17:55:36;3.37;;;1.60;;
44147;SDS011;29810;55.848;37.368;2022-10-31T17:58:37;3.05;;;1.25;;
44147;SDS011;29810;55.848;37.368;2022-10-31T18:01:39;2.28;;;1.20;;
44147;SDS011;29810;55.848;37.368;2022-10-31T18:04:41;2.42;;;1.33;;
44147;SDS011;29810;55.848;37.368;2022-10-31T18:07:42;3.17;;;1.00;;
44147;SDS011;29810;55.848;37.368;2022-10-31T18:10:44;2.87;;;1.10;;
44147;SDS011;29810;55.848;37.368;2022-10-31T18:13:45;2.03;;;1.30;;
44147;SDS011;29810;55.848;37.368;2022-10-31T18:16:47;2.15;;;1.17;;
44147;SDS011;29810;55.848;37.368;2022-10-31T18:19:49;2.55;;;1.00;;
44147;SDS011;29810;55.848;37.368;2022-10-31T18:22:51;2.78;;;0.93;;
44147;SDS011;29810;55.848;37.368;2022-10-31T18:25:53;2.08;;;1.10;;
44147;SDS011;29810;55.848;37.368;2022-10-31T18:28:55;1.87;;;0.90;;
44147;SDS011;29810;55.848;37.368;2022-10-31T18:31:57;2.33;;;1.30;;
44147;SDS011;29810;55.848;37.368;2022-10-31T18:34:59;2.33;;;1.27;;
44147;SDS011;29810;55.848;37.368;2022-10-31T18:38:01;2.87;;;1.35;;
44147;SDS011;29810;55.848;37.368;2022-10-31T18:41:12;2.65;;;1.12;;
44147;SDS011;29810;55.848;37.368;2022-10-31T18:44:14;1.42;;;1.02;;
44147;SDS011;29810;55.848;37.368;2022-10-31T18:47:16;1.55;;;0.98;;
44147;SDS011;29810;55.848;37.368;2022-10-31T18:50:19;3.45;;;1.55;;
44147;SDS011;29810;55.848;37.368;2022-10-31T18:53:25;1.62;;;0.90;;
44147;SDS011;29810;55.848;37.368;2022-10-31T18:56:27;1.85;;;1.00;;
44147;SDS011;29810;55.848;37.368;2022-10-31T18:59:32;0.83;;;0.70;;
44147;SDS011;29810;55.848;37.368;2022-10-31T19:02:35;2.58;;;1.23;;
44147;SDS011;29810;55.848;37.368;2022-10-31T19:05:37;1.67;;;1.00;;
44147;SDS011;29810;55.848;37.368;2022-10-31T19:08:42;2.12;;;1.20;;
44147;SDS011;29810;55.848;37.368;2022-10-31T19:11:47;2.33;;;0.95;;
44147;SDS011;29810;55.848;37.368;2022-10-31T19:14:52;1.87;;;1.10;;
44147;SDS011;29810;55.848;37.368;2022-10-31T19:17:54;3.05;;;1.12;;
44147;SDS011;29810;55.848;37.368;2022-10-31T19:20:56;3.33;;;1.23;;
44147;SDS011;29810;55.848;37.368;2022-10-31T19:25:09;1.37;;;0.80;;
44147;SDS011;29810;55.848;37.368;2022-10-31T19:28:13;1.92;;;1.10;;
44147;SDS011;29810;55.848;37.368;2022-10-31T19:31:14;1.87;;;1.00;;
44147;SDS011;29810;55.848;37.368;2022-10-31T19:34:17;1.27;;;0.82;;
44147;SDS011;29810;55.848;37.368;2022-10-31T19:37:19;2.28;;;1.08;;
44147;SDS011;29810;55.848;37.368;2022-10-31T19:40:20;2.85;;;1.02;;
44147;SDS011;29810;55.848;37.368;2022-10-31T19:43:22;2.05;;;0.88;;
44147;SDS011;29810;55.848;37.368;2022-10-31T19:46:23;3.20;;;1.02;;
44147;SDS011;29810;55.848;37.368;2022-10-31T19:49:25;1.50;;;0.80;;
44147;SDS011;29810;55.848;37.368;2022-10-31T19:52:26;4.03;;;0.90;;
44147;SDS011;29810;55.848;37.368;2022-10-31T19:55:28;2.37;;;0.80;;
44147;SDS011;29810;55.848;37.368;2022-10-31T19:58:31;3.37;;;1.02;;
44147;SDS011;29810;55.848;37.368;2022-10-31T20:01:33;1.87;;;1.23;;
44147;SDS011;29810;55.848;37.368;2022-10-31T20:04:35;1.65;;;1.00;;
44147;SDS011;29810;55.848;37.368;2022-10-31T20:07:37;1.20;;;0.70;;
44147;SDS011;29810;55.848;37.368;2022-10-31T20:10:38;1.73;;;0.90;;
44147;SDS011;29810;55.848;37.368;2022-10-31T20:13:40;3.30;;;0.98;;
44147;SDS011;29810;55.848;37.368;2022-10-31T20:16:42;2.25;;;0.90;;
44147;SDS011;29810;55.848;37.368;2022-10-31T20:19:44;3.03;;;1.00;;
44147;SDS011;29810;55.848;37.368;2022-10-31T20:22:47;2.53;;;0.80;;
44147;SDS011;29810;55.848;37.368;2022-10-31T20:25:50;1.35;;;0.80;;
44147;SDS011;29810;55.848;37.368;2022-10-31T20:28:53;1.85;;;0.90;;
44147;SDS011;29810;55.848;37.368;2022-10-31T20:31:55;1.60;;;0.80;;
44147;SDS011;29810;55.848;37.368;2022-10-31T20:34:59;2.00;;;0.95;;